Time;durP1;ratioP1;P1;durP2;ratioP2;P2;SDS_P1;SDS_P2;PMS_P1;PMS_P2;Temp;Humidity;BMP_temperature;BMP_pressure;BME280_temperature;BME280_humidity;BME280_pressure;Samples;Min_cycle;Max_cycle;Signal;HPM_P1;HPM_P2
2022/04/01 00:02:50;;;;;;;6.27;2.50;;;10.00;99.90;;;;;;6300270;28;20480;-63
2022/04/01 00:05:53;;;;;;;2.83;2.50;;;9.90;99.90;;;;;;6300411;28;20485;-62
2022/04/01 00:08:56;;;;;;;2.17;1.80;;;9.90;99.90;;;;;;6301398;28;20476;-64
2022/04/01 00:12:01;;;;;;;2.60;2.50;;;9.90;99.90;;;;;;6302044;28;20813;-63
2022/04/01 00:15:05;;;;;;;3.03;2.83;;;9.90;99.90;;;;;;6297099;28;20465;-62
2022/04/01 00:18:08;;;;;;;2.20;2.10;;;9.90;99.90;;;;;;6302248;28;20484;-62
2022/04/01 00:21:12;;;;;;;2.57;2.37;;;9.90;99.90;;;;;;6301491;28;20531;-62
2022/04/01 00:24:15;;;;;;;5.00;2.47;;;9.90;99.90;;;;;;6302131;28;20473;-62
2022/04/01 00:27:20;;;;;;;2.70;2.50;;;9.90;99.90;;;;;;6301656;28;20977;-62
2022/04/01 00:30:23;;;;;;;2.80;2.60;;;9.90;99.90;;;;;;6300242;28;20825;-62
2022/04/01 00:33:27;;;;;;;2.20;2.10;;;9.90;99.90;;;;;;6300869;28;20481;-62
2022/04/01 00:36:30;;;;;;;3.07;2.73;;;9.90;99.90;;;;;;6301278;28;20469;-62
2022/04/01 00:39:33;;;;;;;2.77;2.57;;;10.00;99.90;;;;;;6301130;28;20473;-62
2022/04/01 00:42:38;;;;;;;2.70;2.50;;;10.00;99.90;;;;;;6300735;28;20480;-64
2022/04/01 00:45:41;;;;;;;2.63;2.43;;;10.00;99.90;;;;;;6300932;28;20957;-62
2022/04/01 00:48:44;;;;;;;2.87;2.60;;;10.00;99.90;;;;;;6301540;28;20477;-63
2022/04/01 00:51:49;;;;;;;2.33;2.13;;;10.00;99.90;;;;;;6301638;28;20477;-62
2022/04/01 00:54:52;;;;;;;3.90;3.50;;;10.10;99.90;;;;;;6301529;28;20980;-64
2022/04/01 00:57:57;;;;;;;4.50;2.73;;;10.00;99.90;;;;;;6301089;28;20472;-64
2022/04/01 01:01:00;;;;;;;2.70;2.50;;;10.00;99.90;;;;;;6300338;28;20480;-63
2022/04/01 01:04:03;;;;;;;2.37;2.17;;;9.90;99.90;;;;;;6300532;28;20798;-64
2022/04/01 01:07:07;;;;;;;3.00;2.73;;;9.70;99.90;;;;;;6299493;28;20976;-64
2022/04/01 01:10:17;;;;;;;3.00;2.80;;;9.60;99.90;;;;;;6299977;28;20519;-64
2022/04/01 01:13:21;;;;;;;2.67;2.50;;;9.50;99.90;;;;;;6299762;28;20504;-63
2022/04/01 01:16:25;;;;;;;3.10;2.60;;;9.60;99.90;;;;;;6299880;28;20469;-63
2022/04/01 01:19:29;;;;;;;2.63;2.43;;;9.60;99.90;;;;;;6300406;28;20461;-63
2022/04/01 01:22:32;;;;;;;2.10;1.80;;;9.60;99.90;;;;;;6299764;28;20473;-65
2022/04/01 01:25:38;;;;;;;2.23;2.10;;;9.70;99.90;;;;;;6299722;28;20469;-64
2022/04/01 01:28:41;;;;;;;2.70;2.50;;;9.70;99.90;;;;;;6299858;28;20492;-64
2022/04/01 01:31:45;;;;;;;2.70;2.50;;;9.70;99.90;;;;;;6299317;28;20465;-63
2022/04/01 01:34:49;;;;;;;2.57;2.47;;;9.80;99.90;;;;;;6300085;28;20464;-64
2022/04/01 01:37:52;;;;;;;2.00;1.90;;;9.80;99.90;;;;;;6299943;28;20881;-63
2022/04/01 01:40:56;;;;;;;2.23;2.03;;;9.80;99.90;;;;;;6299804;28;20452;-64
2022/04/01 01:44:00;;;;;;;2.47;2.27;;;9.90;99.90;;;;;;6300022;28;20465;-63
2022/04/01 01:47:03;;;;;;;2.03;1.93;;;9.80;99.90;;;;;;6300241;28;20450;-63
2022/04/01 01:56:46;;;;;;;2.50;2.30;;;9.90;99.90;;;;;;6299417;28;20465;-64
2022/04/01 01:59:50;;;;;;;2.77;2.57;;;9.90;99.90;;;;;;6299784;28;20469;-64
2022/04/01 02:02:53;;;;;;;2.70;2.50;;;9.90;99.90;;;;;;6299573;28;20987;-63
2022/04/01 02:05:56;;;;;;;2.77;2.57;;;9.90;99.90;;;;;;6300010;28;20469;-64
2022/04/01 02:09:00;;;;;;;3.07;2.87;;;9.80;99.90;;;;;;6299722;28;20474;-63
2022/04/01 02:12:06;;;;;;;2.90;2.70;;;9.90;99.90;;;;;;6299739;28;20473;-63
2022/04/01 02:15:10;;;;;;;2.77;2.57;;;9.80;99.90;;;;;;6299775;28;20465;-63
2022/04/01 02:18:13;;;;;;;2.97;2.67;;;9.80;99.90;;;;;;6299543;28;20470;-62
2022/04/01 02:21:17;;;;;;;2.83;2.63;;;9.80;99.90;;;;;;6299361;28;20477;-63
2022/04/01 02:24:22;;;;;;;3.00;2.70;;;9.90;99.90;;;;;;6299536;28;21003;-64
2022/04/01 02:27:27;;;;;;;2.93;2.73;;;9.90;99.90;;;;;;6299209;28;20977;-63
2022/04/01 02:30:30;;;;;;;3.83;2.53;;;9.90;99.90;;;;;;6299221;28;20469;-63
2022/04/01 02:33:34;;;;;;;2.83;2.63;;;9.90;99.90;;;;;;6299268;28;20469;-63
2022/04/01 02:36:38;;;;;;;3.10;2.90;;;9.90;99.90;;;;;;6299314;28;20488;-63
2022/04/01 02:39:41;;;;;;;3.37;3.07;;;9.90;99.90;;;;;;6299482;28;20469;-63
2022/04/01 02:42:46;;;;;;;3.57;3.27;;;9.90;99.90;;;;;;6299066;28;20485;-62
2022/04/01 02:45:49;;;;;;;4.60;3.30;;;9.90;99.90;;;;;;6299263;28;20469;-63
2022/04/01 02:48:53;;;;;;;3.37;3.07;;;9.90;99.90;;;;;;6299090;28;20492;-62
2022/04/01 02:51:57;;;;;;;4.10;3.70;;;9.90;99.90;;;;;;6299197;28;20488;-62
2022/04/01 02:55:00;;;;;;;3.50;3.30;;;9.80;99.90;;;;;;6301980;28;20457;-63
2022/04/01 02:58:05;;;;;;;4.10;3.70;;;9.80;99.90;;;;;;6303607;28;20473;-64
2022/04/01 03:01:08;;;;;;;4.10;3.77;;;9.80;99.90;;;;;;6303686;28;20465;-64
2022/04/01 03:04:12;;;;;;;4.60;4.10;;;9.80;99.90;;;;;;6303588;28;20477;-64
2022/04/01 03:07:15;;;;;;;4.00;3.67;;;9.70;99.90;;;;;;6303508;28;20503;-64
2022/04/01 03:10:23;;;;;;;3.77;3.47;;;9.70;99.90;;;;;;6303360;28;20492;-64
2022/04/01 03:13:28;;;;;;;3.73;3.43;;;9.70;99.90;;;;;;6303481;28;20481;-70
2022/04/01 03:16:32;;;;;;;3.70;3.40;;;9.70;99.90;;;;;;6303461;28;20919;-65
2022/04/01 03:19:35;;;;;;;4.40;4.00;;;9.70;99.90;;;;;;6303131;28;20461;-65
2022/04/01 03:22:38;;;;;;;5.67;4.13;;;9.70;99.90;;;;;;6302904;28;20480;-65
2022/04/01 03:25:41;;;;;;;3.50;3.30;;;9.70;99.90;;;;;;6302834;28;20910;-64
2022/04/01 03:28:46;;;;;;;4.13;3.83;;;9.60;99.90;;;;;;6293428;28;20469;-63
2022/04/01 03:31:51;;;;;;;4.00;3.40;;;9.70;99.90;;;;;;6302738;28;20464;-63
2022/04/01 03:34:55;;;;;;;3.80;3.50;;;9.60;99.90;;;;;;6302887;28;20491;-64
2022/04/01 03:37:58;;;;;;;4.93;4.43;;;9.60;99.90;;;;;;6303109;28;20457;-64
2022/04/01 03:41:02;;;;;;;5.20;4.70;;;9.60;99.90;;;;;;6304464;28;20445;-64
2022/04/01 03:44:09;;;;;;;4.80;4.40;;;9.50;99.90;;;;;;6304983;28;20472;-65
2022/04/01 03:47:15;;;;;;;5.00;4.57;;;9.50;99.90;;;;;;6304431;28;20480;-64
2022/04/01 03:50:28;;;;;;;5.60;5.10;;;9.50;99.90;;;;;;6302868;28;20915;-64
2022/04/01 03:53:34;;;;;;;5.20;4.77;;;9.50;99.90;;;;;;6301913;28;20961;-64
2022/04/01 03:56:38;;;;;;;4.80;4.37;;;9.50;99.90;;;;;;6302172;28;20991;-64
2022/04/01 03:59:50;;;;;;;5.63;5.20;;;9.50;99.90;;;;;;6302297;28;20465;-64
2022/04/01 04:02:54;;;;;;;5.20;4.80;;;9.50;99.90;;;;;;6302571;28;20484;-64
2022/04/01 04:05:58;;;;;;;5.90;5.30;;;9.50;99.90;;;;;;6302390;28;20610;-64
2022/04/01 04:09:03;;;;;;;6.53;5.93;;;9.50;99.90;;;;;;6302079;28;20474;-64
2022/04/01 04:12:09;;;;;;;4.43;4.03;;;9.50;99.90;;;;;;6302513;28;20493;-64
2022/04/01 04:15:14;;;;;;;4.27;3.90;;;9.50;99.90;;;;;;6304159;28;20481;-64
2022/04/01 04:18:19;;;;;;;4.47;4.13;;;9.40;99.90;;;;;;6304637;28;20469;-65
2022/04/01 04:21:26;;;;;;;4.60;4.20;;;9.40;99.90;;;;;;6301640;28;20474;-65
2022/04/01 04:24:31;;;;;;;5.40;4.13;;;9.40;99.90;;;;;;6301466;28;20484;-65
2022/04/01 04:27:36;;;;;;;4.43;3.93;;;9.40;99.90;;;;;;6301644;28;20806;-65
2022/04/01 04:30:51;;;;;;;5.03;4.50;;;9.40;99.90;;;;;;6296656;28;20857;-65
2022/04/01 04:33:57;;;;;;;4.17;3.80;;;9.40;99.90;;;;;;6300920;28;20486;-65
2022/04/01 04:37:10;;;;;;;3.87;3.57;;;9.30;99.90;;;;;;6301111;28;21025;-65
2022/04/01 04:40:17;;;;;;;3.73;3.53;;;9.40;99.90;;;;;;6301322;28;20468;-65
2022/04/01 04:43:23;;;;;;;7.07;4.53;;;9.40;99.90;;;;;;6301413;28;20910;-65
2022/04/01 04:46:30;;;;;;;4.07;3.77;;;9.40;99.90;;;;;;6300738;28;20469;-65
2022/04/01 04:49:34;;;;;;;9.50;4.60;;;9.40;99.90;;;;;;6301036;28;20517;-65
2022/04/01 04:52:40;;;;;;;4.47;4.13;;;9.50;99.90;;;;;;6300700;28;20474;-65
2022/04/01 04:55:45;;;;;;;5.30;4.80;;;9.50;99.90;;;;;;6300131;28;20548;-65
2022/04/01 04:58:48;;;;;;;5.80;5.20;;;9.50;99.90;;;;;;6300275;28;20454;-65
2022/04/01 05:01:58;;;;;;;5.30;4.80;;;9.50;99.90;;;;;;6300454;28;20425;-65
2022/04/01 05:05:04;;;;;;;6.00;5.40;;;9.50;99.90;;;;;;6297590;28;20450;-65
2022/04/01 05:08:18;;;;;;;5.90;5.30;;;9.50;99.90;;;;;;6299925;28;20797;-65
2022/04/01 05:11:32;;;;;;;7.70;5.27;;;9.50;99.90;;;;;;6298343;28;20797;-65
2022/04/01 05:14:49;;;;;;;5.80;5.33;;;9.50;99.90;;;;;;6300130;28;20477;-65
2022/04/01 05:17:58;;;;;;;7.87;7.17;;;9.60;99.90;;;;;;6299377;28;20664;-65
2022/04/01 05:21:04;;;;;;;6.87;5.50;;;9.50;99.90;;;;;;6299118;28;20470;-65
2022/04/01 05:24:09;;;;;;;6.50;5.80;;;9.60;99.90;;;;;;6300733;28;20805;-65
2022/04/01 05:27:23;;;;;;;8.40;7.07;;;9.60;99.90;;;;;;6304884;28;20865;-65
2022/04/01 05:30:31;;;;;;;8.00;6.60;;;9.70;99.90;;;;;;6303213;28;20478;-66
2022/04/01 05:33:42;;;;;;;7.33;6.50;;;9.60;99.90;;;;;;6296842;28;20489;-65
2022/04/01 05:36:46;;;;;;;7.50;6.90;;;9.60;99.90;;;;;;6300455;28;20817;-65
2022/04/01 05:39:50;;;;;;;7.23;6.27;;;9.60;99.90;;;;;;6303896;28;20469;-65
2022/04/01 05:42:55;;;;;;;6.17;5.67;;;9.60;99.90;;;;;;6301257;28;20477;-65
2022/04/01 05:45:59;;;;;;;7.90;7.10;;;9.70;99.90;;;;;;6300805;28;20816;-63
2022/04/01 05:49:04;;;;;;;8.57;7.83;;;9.70;99.90;;;;;;6300665;28;20476;-63
2022/04/01 05:52:09;;;;;;;9.30;8.60;;;9.70;99.90;;;;;;6300496;28;20473;-63
2022/04/01 05:55:14;;;;;;;9.23;8.43;;;9.80;99.90;;;;;;6299913;28;20552;-64
2022/04/01 05:58:18;;;;;;;9.10;8.30;;;9.80;99.90;;;;;;6300133;28;20778;-64
2022/04/01 06:01:31;;;;;;;9.17;8.37;;;9.90;99.90;;;;;;6300312;28;20461;-63
2022/04/01 06:05:05;;;;;;;8.67;8.00;;;9.90;99.90;;;;;;6300089;28;20489;-62
2022/04/01 06:08:19;;;;;;;10.63;9.53;;;9.90;99.90;;;;;;6299850;28;20457;-64
2022/04/01 06:11:34;;;;;;;10.53;9.63;;;9.80;99.90;;;;;;6299910;28;20942;-63
2022/04/01 06:14:46;;;;;;;11.43;10.33;;;9.80;99.90;;;;;;6299658;28;20470;-63
2022/04/01 06:18:04;;;;;;;10.57;9.63;;;9.90;99.90;;;;;;6299815;28;20961;-63
2022/04/01 06:21:15;;;;;;;10.60;9.60;;;9.80;99.90;;;;;;6300051;28;20481;-64
2022/04/01 06:24:27;;;;;;;11.47;10.00;;;9.80;99.90;;;;;;6299290;28;20481;-63
2022/04/01 06:27:38;;;;;;;10.60;9.70;;;9.90;99.90;;;;;;6299886;28;20473;-63
2022/04/01 06:30:43;;;;;;;10.70;9.80;;;9.90;99.90;;;;;;6303638;28;20572;-64
2022/04/01 06:33:55;;;;;;;11.60;10.50;;;9.80;99.90;;;;;;6304770;28;20479;-63
2022/04/01 06:37:01;;;;;;;10.67;9.77;;;9.80;99.90;;;;;;6304486;28;20784;-63
2022/04/01 06:40:10;;;;;;;13.10;11.10;;;9.90;99.90;;;;;;6299823;28;20945;-63
2022/04/01 06:43:13;;;;;;;10.73;9.73;;;9.90;99.90;;;;;;6304248;28;20495;-63
2022/04/01 06:46:17;;;;;;;14.40;11.37;;;10.00;99.90;;;;;;6304176;28;20473;-64
2022/04/01 06:49:21;;;;;;;11.20;10.20;;;10.00;99.90;;;;;;6304343;28;20533;-63
2022/04/01 06:52:27;;;;;;;11.57;10.20;;;10.10;99.90;;;;;;6304229;28;20485;-63
2022/04/01 06:55:30;;;;;;;10.70;9.60;;;10.10;99.90;;;;;;6305237;28;20480;-63
2022/04/01 06:58:33;;;;;;;10.50;9.40;;;10.10;99.90;;;;;;6303796;28;20480;-64
2022/04/01 07:01:38;;;;;;;12.13;9.60;;;10.30;99.90;;;;;;6303918;28;20465;-63
2022/04/01 07:04:42;;;;;;;9.80;8.90;;;10.40;99.90;;;;;;6303443;28;20530;-63
2022/04/01 07:07:47;;;;;;;9.20;8.47;;;10.50;99.90;;;;;;6303514;28;20559;-63
2022/04/01 07:10:51;;;;;;;8.97;8.03;;;10.70;99.90;;;;;;6303791;28;20477;-63
2022/04/01 07:13:54;;;;;;;9.30;8.40;;;10.80;99.90;;;;;;6304853;28;20480;-64
2022/04/01 07:16:57;;;;;;;8.93;8.13;;;11.00;99.90;;;;;;6303908;28;20441;-64
2022/04/01 07:20:00;;;;;;;10.10;7.67;;;11.00;99.90;;;;;;6303233;28;20445;-64
2022/04/01 07:23:05;;;;;;;10.97;10.07;;;11.10;99.90;;;;;;6301904;28;20885;-64
2022/04/01 07:26:09;;;;;;;10.20;9.30;;;11.10;99.90;;;;;;6302001;28;20499;-64
2022/04/01 07:29:12;;;;;;;13.00;10.83;;;11.20;99.90;;;;;;6301872;28;20469;-63
2022/04/01 07:32:32;;;;;;;9.90;8.90;;;11.30;99.90;;;;;;6303183;28;20480;-64
2022/04/01 07:35:36;;;;;;;9.60;8.63;;;11.20;99.90;;;;;;6302953;28;20476;-64
2022/04/01 07:38:40;;;;;;;7.97;7.27;;;11.30;99.90;;;;;;6303134;28;20477;-64
2022/04/01 07:41:43;;;;;;;9.00;8.20;;;11.50;99.90;;;;;;6292896;28;20480;-63
2022/04/01 07:44:46;;;;;;;8.70;7.90;;;11.50;99.90;;;;;;6302754;28;20478;-63
2022/04/01 07:47:51;;;;;;;8.00;7.40;;;11.60;99.90;;;;;;6302808;28;20465;-64
2022/04/01 07:50:55;;;;;;;8.40;7.70;;;11.80;99.90;;;;;;6302864;28;20469;-64
2022/04/01 07:54:00;;;;;;;6.77;6.20;;;11.90;99.90;;;;;;6302995;28;20792;-64
2022/04/01 07:57:03;;;;;;;7.70;7.10;;;12.10;99.90;;;;;;6303797;28;20468;-64
2022/04/01 08:00:10;;;;;;;8.90;8.10;;;12.20;99.90;;;;;;6303405;28;20571;-64
2022/04/01 08:03:13;;;;;;;8.13;7.27;;;12.30;99.90;;;;;;6302673;28;20548;-64
2022/04/01 08:06:18;;;;;;;7.43;6.83;;;12.40;99.90;;;;;;6302615;28;20475;-63
2022/04/01 08:09:23;;;;;;;8.90;6.77;;;12.50;99.90;;;;;;6302500;28;20972;-64
2022/04/01 08:12:26;;;;;;;7.03;6.43;;;12.50;99.90;;;;;;6302178;28;20465;-64
2022/04/01 08:15:30;;;;;;;7.60;6.90;;;12.50;99.90;;;;;;6302331;28;20476;-63
2022/04/01 08:18:34;;;;;;;7.13;6.53;;;12.50;99.90;;;;;;6302081;28;20937;-64
2022/04/01 08:21:38;;;;;;;7.07;6.47;;;12.50;99.90;;;;;;6298901;28;20473;-63
2022/04/01 08:24:42;;;;;;;8.00;6.50;;;12.30;99.90;;;;;;6290178;28;20476;-64
2022/04/01 08:27:46;;;;;;;6.37;5.77;;;12.20;99.90;;;;;;6281010;28;20471;-63
2022/04/01 08:30:49;;;;;;;7.40;6.80;;;12.10;99.90;;;;;;6278126;28;20466;-65
2022/04/01 08:33:54;;;;;;;7.40;6.77;;;12.10;99.90;;;;;;6301609;28;20560;-63
2022/04/01 08:36:57;;;;;;;7.03;6.40;;;12.20;99.90;;;;;;6301697;28;20477;-65
2022/04/01 08:40:03;;;;;;;7.27;6.67;;;12.20;99.90;;;;;;6286989;28;20467;-64
2022/04/01 08:43:06;;;;;;;7.00;6.40;;;12.40;99.90;;;;;;6279194;28;20471;-65
2022/04/01 08:46:10;;;;;;;6.30;5.80;;;12.60;99.90;;;;;;6276708;28;20918;-65
2022/04/01 08:49:14;;;;;;;7.00;6.30;;;12.90;99.90;;;;;;6278112;28;20804;-65
2022/04/01 08:52:18;;;;;;;6.27;5.67;;;13.00;99.90;;;;;;6290416;28;20473;-65
2022/04/01 08:55:23;;;;;;;6.00;5.50;;;13.10;99.90;;;;;;6301840;28;20480;-65
2022/04/01 08:58:26;;;;;;;5.63;5.10;;;13.50;99.90;;;;;;6301800;28;20477;-64
2022/04/01 09:01:41;;;;;;;4.97;4.40;;;13.60;99.20;;;;;;6282981;28;20462;-64
2022/04/01 09:04:51;;;;;;;4.83;4.43;;;13.60;99.00;;;;;;6300785;28;20478;-65
2022/04/01 09:08:00;;;;;;;4.63;3.93;;;13.70;99.00;;;;;;6300854;28;20603;-65
2022/04/01 09:11:06;;;;;;;4.03;3.73;;;13.70;98.40;;;;;;6301604;28;20438;-65
2022/04/01 09:14:21;;;;;;;4.70;4.40;;;13.90;98.00;;;;;;6301290;28;20456;-65
2022/04/01 09:17:41;;;;;;;4.17;3.80;;;14.00;98.10;;;;;;6292721;28;20474;-65
2022/04/01 09:20:45;;;;;;;3.47;3.17;;;14.30;98.00;;;;;;6276467;28;20482;-66
2022/04/01 09:23:49;;;;;;;3.70;3.40;;;14.40;96.70;;;;;;6298287;28;20531;-65
2022/04/01 09:26:56;;;;;;;3.73;3.43;;;14.90;96.60;;;;;;6300511;28;20556;-65
2022/04/01 09:29:59;;;;;;;3.83;3.20;;;15.40;94.80;;;;;;6300806;28;20502;-65
2022/04/01 09:33:04;;;;;;;3.93;2.43;;;15.40;94.60;;;;;;6299980;28;20466;-65
2022/04/01 09:36:07;;;;;;;3.80;3.50;;;15.50;94.40;;;;;;6300700;28;20469;-65
2022/04/01 09:39:12;;;;;;;3.10;2.90;;;15.40;94.50;;;;;;6300047;28;20476;-65
2022/04/01 09:42:20;;;;;;;3.53;3.17;;;15.50;93.60;;;;;;6299249;28;20536;-65
2022/04/01 09:45:25;;;;;;;2.60;2.40;;;15.80;92.90;;;;;;6298969;28;20473;-66
2022/04/01 09:48:30;;;;;;;2.63;2.43;;;16.10;91.90;;;;;;6292384;28;20477;-65
2022/04/01 09:51:34;;;;;;;3.87;3.57;;;16.00;91.00;;;;;;6299149;28;20482;-65
2022/04/01 09:54:44;;;;;;;2.77;2.57;;;16.00;91.70;;;;;;6281598;22;20477;-65
2022/04/01 09:57:49;;;;;;;3.37;3.10;;;15.80;91.30;;;;;;6274263;28;20472;-65
2022/04/01 10:00:53;;;;;;;2.70;2.50;;;16.00;92.50;;;;;;6274895;28;20478;-66
2022/04/01 10:03:57;;;;;;;3.63;2.50;;;17.30;90.50;;;;;;6274832;28;20469;-65
2022/04/01 10:07:01;;;;;;;2.57;2.40;;;17.40;85.90;;;;;;6277027;28;20497;-66
2022/04/01 10:10:06;;;;;;;2.00;1.90;;;17.50;86.80;;;;;;6274602;28;20505;-66
2022/04/01 10:13:15;;;;;;;2.03;1.70;;;17.60;88.00;;;;;;6274031;28;20497;-66
2022/04/01 10:16:20;;;;;;;2.30;2.10;;;17.90;84.00;;;;;;6274345;28;20825;-66
2022/04/01 10:19:29;;;;;;;2.87;2.23;;;18.10;84.20;;;;;;6274846;28;20247;-67
2022/04/01 10:22:33;;;;;;;1.97;1.77;;;18.50;82.90;;;;;;6269138;28;20659;-66
2022/04/01 10:25:45;;;;;;;2.00;1.90;;;18.70;81.90;;;;;;6249797;28;20266;-66
2022/04/01 10:28:52;;;;;;;1.90;1.80;;;18.60;78.90;;;;;;6249747;28;20228;-66
2022/04/01 10:32:16;;;;;;;1.73;1.60;;;18.20;78.30;;;;;;6249450;28;20444;-66
2022/04/01 10:35:25;;;;;;;3.90;2.77;;;18.30;79.40;;;;;;6249349;28;20791;-66
2022/04/01 10:38:33;;;;;;;2.70;2.50;;;18.20;79.50;;;;;;6249822;28;20474;-66
2022/04/01 10:41:36;;;;;;;3.63;3.43;;;17.80;80.90;;;;;;6249757;28;20474;-66
2022/04/01 10:44:49;;;;;;;3.20;3.00;;;17.50;82.50;;;;;;6250018;28;20229;-66
2022/04/01 10:51:39;;;;;;;2.63;2.37;;;17.30;84.00;;;;;;6245951;28;20475;-65
2022/04/01 10:54:43;;;;;;;2.73;2.53;;;17.10;82.10;;;;;;6249586;28;20475;-63
2022/04/01 10:57:50;;;;;;;2.60;2.40;;;16.60;84.30;;;;;;6256025;28;20561;-65
2022/04/01 11:00:55;;;;;;;2.10;2.00;;;16.40;84.20;;;;;;6264591;28;20499;-64
2022/04/01 11:04:01;;;;;;;2.17;2.07;;;16.20;84.60;;;;;;6260956;28;20472;-65
2022/04/01 11:07:06;;;;;;;2.27;2.17;;;16.00;85.60;;;;;;6253385;28;20998;-65
2022/04/01 11:10:24;;;;;;;2.33;2.13;;;15.80;87.50;;;;;;6254907;28;20482;-64
2022/04/01 11:13:29;;;;;;;1.70;1.60;;;15.70;88.40;;;;;;6262199;28;20480;-64
2022/04/01 11:16:50;;;;;;;4.27;2.23;;;15.50;88.60;;;;;;6258781;28;20490;-64
2022/04/01 11:20:01;;;;;;;2.40;2.20;;;15.50;89.80;;;;;;6253789;28;20916;-64
2022/04/01 11:23:12;;;;;;;2.80;2.60;;;15.10;91.00;;;;;;6254363;28;20455;-65
2022/04/01 11:26:16;;;;;;;2.37;2.27;;;15.10;91.70;;;;;;6238754;28;20468;-63
2022/04/01 11:29:20;;;;;;;2.50;2.40;;;15.30;90.50;;;;;;6245251;28;20476;-63
2022/04/01 11:32:25;;;;;;;2.17;2.00;;;15.00;91.20;;;;;;6228922;28;20476;-64
2022/04/01 11:35:30;;;;;;;2.73;2.63;;;15.40;91.30;;;;;;6256114;28;20479;-63
2022/04/01 11:38:33;;;;;;;3.13;2.77;;;15.40;90.80;;;;;;6253669;28;20489;-63
2022/04/01 11:41:48;;;;;;;3.13;2.33;;;15.20;91.60;;;;;;6249282;28;20811;-64
2022/04/01 11:44:58;;;;;;;2.57;2.40;;;15.30;91.40;;;;;;6228711;28;20479;-63
2022/04/01 11:48:16;;;;;;;2.67;2.33;;;15.40;90.60;;;;;;6228516;28;20473;-64
2022/04/01 11:51:23;;;;;;;2.63;2.43;;;15.60;90.30;;;;;;6228287;28;20483;-64
2022/04/01 11:54:27;;;;;;;3.77;2.73;;;15.40;90.20;;;;;;6228185;28;20488;-64
2022/04/01 11:57:31;;;;;;;3.00;1.80;;;15.40;90.60;;;;;;6215205;28;20487;-64
2022/04/01 12:00:34;;;;;;;2.30;2.10;;;15.60;89.10;;;;;;6247682;28;20513;-64
2022/04/01 12:03:39;;;;;;;2.30;2.20;;;15.30;89.40;;;;;;6252230;28;20785;-63
2022/04/01 12:10:04;;;;;;;2.13;2.03;;;15.00;92.20;;;;;;6252329;28;20491;-63
2022/04/01 12:13:11;;;;;;;2.40;2.20;;;14.60;93.00;;;;;;6252362;28;20494;-63
2022/04/01 12:16:14;;;;;;;2.93;2.73;;;14.60;93.00;;;;;;6252638;28;20562;-64
2022/04/01 12:19:21;;;;;;;2.50;2.30;;;14.60;93.20;;;;;;6253291;28;20479;-64
2022/04/01 12:22:24;;;;;;;2.67;2.47;;;14.50;93.10;;;;;;6251924;28;20562;-64
2022/04/01 12:25:30;;;;;;;2.70;2.50;;;14.50;93.30;;;;;;6251428;28;20474;-64
2022/04/01 12:28:37;;;;;;;3.30;3.10;;;14.60;93.30;;;;;;6249009;28;20581;-65
2022/04/01 12:31:40;;;;;;;2.97;2.77;;;14.50;93.50;;;;;;6237599;28;20811;-67
2022/04/01 12:34:47;;;;;;;3.53;3.00;;;14.40;93.50;;;;;;6243977;28;20538;-66
2022/04/01 12:38:03;;;;;;;3.80;3.57;;;14.20;94.10;;;;;;6244230;28;20457;-64
2022/04/01 12:41:07;;;;;;;3.40;3.10;;;14.20;94.20;;;;;;6246443;28;20447;-66
2022/04/01 12:44:12;;;;;;;3.30;3.10;;;14.20;94.90;;;;;;6240295;28;20777;-67
2022/04/01 12:47:27;;;;;;;3.37;2.80;;;14.30;94.30;;;;;;6240891;28;20459;-64
2022/04/01 12:50:36;;;;;;;3.93;3.63;;;14.20;94.90;;;;;;6227213;28;20807;-69
2022/04/01 12:53:40;;;;;;;3.20;3.00;;;14.20;94.90;;;;;;6226429;28;20480;-66
2022/04/01 12:56:45;;;;;;;3.57;3.27;;;14.40;94.60;;;;;;6226964;28;20790;-64
2022/04/01 12:59:49;;;;;;;2.80;2.60;;;14.50;94.60;;;;;;6222693;28;20491;-64
2022/04/01 13:02:54;;;;;;;2.57;2.47;;;14.60;93.80;;;;;;6230049;28;20468;-64
2022/04/01 13:06:12;;;;;;;3.80;3.53;;;14.70;93.90;;;;;;6251259;28;20494;-63
2022/04/01 13:09:15;;;;;;;3.27;2.97;;;14.70;94.20;;;;;;6251892;28;20487;-66
2022/04/01 13:12:20;;;;;;;3.60;2.90;;;14.60;94.20;;;;;;6254989;28;20482;-66
2022/04/01 13:15:27;;;;;;;3.23;2.93;;;14.60;94.30;;;;;;6253205;28;20962;-67
2022/04/01 13:18:32;;;;;;;3.67;3.40;;;14.70;93.50;;;;;;6255924;28;20471;-65
2022/04/01 13:21:36;;;;;;;3.65;3.35;;;14.60;93.30;;;;;;6254432;28;20782;-65
2022/04/01 13:24:41;;;;;;;3.60;3.40;;;14.50;93.30;;;;;;6251122;28;20261;-67
2022/04/01 13:27:45;;;;;;;3.87;3.57;;;14.30;93.50;;;;;;6250969;28;20475;-68
2022/04/01 13:30:48;;;;;;;3.10;2.90;;;14.30;94.00;;;;;;6238062;28;20472;-68
2022/04/01 13:33:51;;;;;;;3.57;3.37;;;14.40;94.00;;;;;;6226326;28;20491;-64
2022/04/01 13:36:56;;;;;;;5.60;3.00;;;14.60;93.70;;;;;;6228362;28;20472;-67
2022/04/01 13:40:00;;;;;;;3.87;3.57;;;14.60;93.10;;;;;;6251405;28;20491;-68
2022/04/01 13:43:03;;;;;;;3.50;3.30;;;14.60;93.30;;;;;;6252990;28;20483;-67
2022/04/01 13:46:14;;;;;;;3.60;3.30;;;14.40;93.10;;;;;;6252077;28;20476;-65
2022/04/01 13:49:17;;;;;;;4.37;4.07;;;14.20;93.60;;;;;;6231086;28;20484;-65
2022/04/01 13:52:22;;;;;;;4.13;3.83;;;14.20;93.70;;;;;;6225562;28;20487;-65
2022/04/01 13:55:25;;;;;;;4.40;4.10;;;14.10;93.70;;;;;;6230495;28;20498;-65
2022/04/01 13:58:35;;;;;;;4.27;3.97;;;13.90;94.40;;;;;;6236642;28;20468;-62
2022/04/01 14:01:38;;;;;;;5.43;4.93;;;14.00;94.70;;;;;;6228003;28;20463;-62
2022/04/01 14:04:42;;;;;;;6.33;5.80;;;13.90;95.00;;;;;;6235871;28;20474;-62
2022/04/01 14:07:46;;;;;;;6.27;5.77;;;13.70;95.60;;;;;;6250040;28;20962;-62
2022/04/01 14:10:49;;;;;;;6.63;6.07;;;13.40;96.40;;;;;;6241713;28;20476;-61
2022/04/01 14:13:53;;;;;;;7.47;6.70;;;13.10;97.00;;;;;;6225326;28;20480;-61
2022/04/01 14:16:57;;;;;;;8.53;7.73;;;12.90;97.70;;;;;;6225105;28;20559;-62
2022/04/01 14:20:04;;;;;;;8.87;8.03;;;12.60;98.40;;;;;;6225314;28;20912;-62
2022/04/01 14:23:09;;;;;;;8.87;7.97;;;12.40;99.00;;;;;;6235163;28;20478;-62
2022/04/01 14:26:13;;;;;;;10.50;8.37;;;12.20;99.60;;;;;;6249418;28;20459;-65
2022/04/01 14:32:37;;;;;;;9.97;8.93;;;11.80;99.90;;;;;;6225033;28;20499;-62
2022/04/01 14:35:41;;;;;;;9.60;8.70;;;11.60;99.90;;;;;;6224843;28;20472;-66
2022/04/01 14:38:46;;;;;;;10.27;9.27;;;11.40;99.90;;;;;;6226472;28;20467;-67
2022/04/01 14:41:49;;;;;;;9.63;8.63;;;11.30;99.90;;;;;;6227583;28;20468;-66
2022/04/01 14:44:52;;;;;;;11.30;9.70;;;11.10;99.90;;;;;;6225491;28;20791;-67
2022/04/01 14:47:55;;;;;;;9.80;8.80;;;11.00;99.90;;;;;;6226141;28;20471;-67
2022/04/01 14:50:58;;;;;;;8.47;7.73;;;11.00;99.90;;;;;;6227757;28;20824;-61
2022/04/01 14:54:03;;;;;;;9.13;8.33;;;11.00;99.90;;;;;;6228495;28;20475;-64
2022/04/01 14:57:07;;;;;;;8.93;8.13;;;11.00;99.90;;;;;;6235257;28;20491;-67
2022/04/01 15:00:12;;;;;;;8.70;7.90;;;11.00;99.90;;;;;;6234193;28;20468;-63
2022/04/01 15:03:15;;;;;;;12.00;8.00;;;11.00;99.90;;;;;;6230563;28;20475;-63
2022/04/01 15:06:20;;;;;;;8.70;7.90;;;10.90;99.90;;;;;;6220918;28;20520;-63
2022/04/01 15:09:26;;;;;;;10.90;8.00;;;10.90;99.90;;;;;;6229944;28;20475;-63
2022/04/01 15:12:29;;;;;;;9.67;8.70;;;10.80;99.90;;;;;;6229682;28;20472;-63
2022/04/01 15:15:32;;;;;;;8.50;7.70;;;10.70;99.90;;;;;;6228535;28;20484;-62
2022/04/01 15:18:36;;;;;;;9.80;8.90;;;10.70;99.90;;;;;;6229012;28;20975;-67
2022/04/01 15:21:39;;;;;;;8.53;7.77;;;10.50;99.90;;;;;;6229187;28;20968;-66
2022/04/01 15:24:44;;;;;;;8.30;7.10;;;10.40;99.90;;;;;;6278259;28;20477;-67
2022/04/01 15:27:47;;;;;;;8.27;7.50;;;10.30;99.90;;;;;;6257746;28;20479;-66
2022/04/01 15:30:50;;;;;;;7.37;6.57;;;10.20;99.90;;;;;;6241189;28;20467;-67
2022/04/01 15:33:54;;;;;;;7.17;6.60;;;10.10;99.90;;;;;;6233887;28;20490;-66
2022/04/01 15:36:59;;;;;;;12.07;9.13;;;10.10;99.90;;;;;;6230579;28;20487;-64
2022/04/01 15:40:07;;;;;;;13.93;10.47;;;10.10;99.90;;;;;;6253062;28;20803;-66
2022/04/01 15:43:11;;;;;;;6.77;6.20;;;10.10;99.90;;;;;;6252471;28;20486;-66
2022/04/01 15:46:17;;;;;;;7.00;6.20;;;10.00;99.90;;;;;;6253084;28;20475;-63
2022/04/01 15:49:22;;;;;;;7.57;6.63;;;10.00;99.90;;;;;;6231775;28;20956;-63
2022/04/01 15:52:25;;;;;;;5.90;5.30;;;10.00;99.90;;;;;;6228414;28;20484;-66
2022/04/01 15:55:29;;;;;;;9.93;6.93;;;10.00;99.90;;;;;;6229999;28;20483;-67
2022/04/01 15:58:33;;;;;;;7.77;7.00;;;9.90;99.90;;;;;;6256016;28;20478;-65
2022/04/01 16:01:39;;;;;;;5.10;4.67;;;9.90;99.90;;;;;;6253990;28;20472;-66
2022/04/01 16:04:48;;;;;;;4.87;4.47;;;9.90;99.90;;;;;;6253917;28;20482;-63
2022/04/01 16:07:51;;;;;;;4.93;4.57;;;9.90;99.90;;;;;;6252792;28;20456;-62
2022/04/01 16:10:56;;;;;;;5.13;4.63;;;9.70;99.90;;;;;;6255146;28;20557;-66
2022/04/01 16:14:03;;;;;;;5.57;4.50;;;9.60;99.90;;;;;;6252879;28;20774;-66
2022/04/01 16:17:27;;;;;;;5.90;5.20;;;9.60;99.90;;;;;;6255052;28;20553;-66
2022/04/01 16:20:30;;;;;;;6.00;5.40;;;9.50;99.90;;;;;;6254246;28;20479;-62
2022/04/01 16:23:34;;;;;;;5.27;4.83;;;9.50;99.90;;;;;;6252827;28;20466;-63
2022/04/01 16:26:38;;;;;;;6.47;5.23;;;9.50;99.90;;;;;;6252584;28;20475;-63
2022/04/01 16:29:41;;;;;;;5.87;5.13;;;9.50;99.90;;;;;;6248937;28;20478;-64